sensor_id;sensor_type;location;lat;lon;timestamp;temperature;humidity
56498;DHT22;51790;45.558;12.076;2023-03-13T00:05:42;6.90;77.50
56498;DHT22;51790;45.558;12.076;2023-03-13T00:11:44;6.60;78.10
56498;DHT22;51790;45.558;12.076;2023-03-13T00:17:45;6.40;78.90
56498;DHT22;51790;45.558;12.076;2023-03-13T00:23:47;6.30;78.70
56498;DHT22;51790;45.558;12.076;2023-03-13T00:29:48;6.10;79.10
56498;DHT22;51790;45.558;12.076;2023-03-13T00:35:50;6.00;80.20
56498;DHT22;51790;45.558;12.076;2023-03-13T00:41:52;5.90;80.10
56498;DHT22;51790;45.558;12.076;2023-03-13T00:47:53;5.90;80.40
56498;DHT22;51790;45.558;12.076;2023-03-13T00:53:55;6.30;80.10
56498;DHT22;51790;45.558;12.076;2023-03-13T00:59:56;6.50;78.40
56498;DHT22;51790;45.558;12.076;2023-03-13T01:05:58;6.60;78.30
56498;DHT22;51790;45.558;12.076;2023-03-13T01:12:00;6.30;79.20
56498;DHT22;51790;45.558;12.076;2023-03-13T01:18:01;6.30;78.70
56498;DHT22;51790;45.558;12.076;2023-03-13T01:24:03;6.30;79.30
56498;DHT22;51790;45.558;12.076;2023-03-13T01:30:05;6.30;78.50
56498;DHT22;51790;45.558;12.076;2023-03-13T01:36:06;6.30;78.10
56498;DHT22;51790;45.558;12.076;2023-03-13T01:42:08;6.40;77.10
56498;DHT22;51790;45.558;12.076;2023-03-13T01:48:10;6.40;75.60
56498;DHT22;51790;45.558;12.076;2023-03-13T02:00:40;6.10;76.20
56498;DHT22;51790;45.558;12.076;2023-03-13T02:06:44;6.00;76.80
56498;DHT22;51790;45.558;12.076;2023-03-13T02:12:49;6.20;76.40
56498;DHT22;51790;45.558;12.076;2023-03-13T02:18:51;6.20;75.80
56498;DHT22;51790;45.558;12.076;2023-03-13T02:31:00;6.00;76.20
56498;DHT22;51790;45.558;12.076;2023-03-13T02:37:04;5.90;76.40
56498;DHT22;51790;45.558;12.076;2023-03-13T02:43:11;6.00;76.10
56498;DHT22;51790;45.558;12.076;2023-03-13T02:49:18;6.10;76.10
56498;DHT22;51790;45.558;12.076;2023-03-13T02:55:23;5.90;76.80
56498;DHT22;51790;45.558;12.076;2023-03-13T03:01:26;5.90;77.10
56498;DHT22;51790;45.558;12.076;2023-03-13T03:07:28;5.90;77.20
56498;DHT22;51790;45.558;12.076;2023-03-13T03:13:30;6.00;77.30
56498;DHT22;51790;45.558;12.076;2023-03-13T03:19:31;6.00;77.60
56498;DHT22;51790;45.558;12.076;2023-03-13T03:25:34;6.30;77.20
56498;DHT22;51790;45.558;12.076;2023-03-13T03:31:36;6.40;76.70
56498;DHT22;51790;45.558;12.076;2023-03-13T03:37:37;6.20;77.70
56498;DHT22;51790;45.558;12.076;2023-03-13T03:43:39;6.10;78.20
56498;DHT22;51790;45.558;12.076;2023-03-13T03:49:42;6.10;79.00
56498;DHT22;51790;45.558;12.076;2023-03-13T03:55:46;6.30;78.90
56498;DHT22;51790;45.558;12.076;2023-03-13T04:01:47;6.30;79.40
56498;DHT22;51790;45.558;12.076;2023-03-13T04:07:54;6.40;79.40
56498;DHT22;51790;45.558;12.076;2023-03-13T04:13:55;6.40;79.90
56498;DHT22;51790;45.558;12.076;2023-03-13T04:19:57;6.30;80.30
56498;DHT22;51790;45.558;12.076;2023-03-13T04:25:58;6.30;80.70
56498;DHT22;51790;45.558;12.076;2023-03-13T04:32:00;6.30;80.90
56498;DHT22;51790;45.558;12.076;2023-03-13T04:38:26;6.30;80.90
56498;DHT22;51790;45.558;12.076;2023-03-13T04:44:52;6.20;80.90
56498;DHT22;51790;45.558;12.076;2023-03-13T04:51:09;6.20;81.30
56498;DHT22;51790;45.558;12.076;2023-03-13T04:57:28;6.30;81.20
56498;DHT22;51790;45.558;12.076;2023-03-13T05:03:39;6.30;81.40
56498;DHT22;51790;45.558;12.076;2023-03-13T05:09:59;6.30;81.50
56498;DHT22;51790;45.558;12.076;2023-03-13T05:16:36;6.30;81.50
56498;DHT22;51790;45.558;12.076;2023-03-13T05:23:10;6.30;81.50
56498;DHT22;51790;45.558;12.076;2023-03-13T05:29:34;6.80;80.10
56498;DHT22;51790;45.558;12.076;2023-03-13T05:35:47;6.60;80.70
56498;DHT22;51790;45.558;12.076;2023-03-13T05:42:02;6.30;81.80
56498;DHT22;51790;45.558;12.076;2023-03-13T05:48:20;6.40;81.30
56498;DHT22;51790;45.558;12.076;2023-03-13T05:54:51;6.40;81.60
56498;DHT22;51790;45.558;12.076;2023-03-13T06:00:52;7.10;80.00
56498;DHT22;51790;45.558;12.076;2023-03-13T06:07:20;7.20;80.10
56498;DHT22;51790;45.558;12.076;2023-03-13T06:13:22;7.60;79.10
56498;DHT22;51790;45.558;12.076;2023-03-13T06:19:26;7.40;79.40
56498;DHT22;51790;45.558;12.076;2023-03-13T06:25:28;7.30;80.00
56498;DHT22;51790;45.558;12.076;2023-03-13T06:31:29;7.20;80.60
56498;DHT22;51790;45.558;12.076;2023-03-13T06:37:30;7.30;80.60
56498;DHT22;51790;45.558;12.076;2023-03-13T06:43:32;7.50;80.30
56498;DHT22;51790;45.558;12.076;2023-03-13T06:49:34;7.80;80.10
56498;DHT22;51790;45.558;12.076;2023-03-13T06:55:37;7.90;80.00
56498;DHT22;51790;45.558;12.076;2023-03-13T07:01:38;8.30;79.20
56498;DHT22;51790;45.558;12.076;2023-03-13T07:07:40;8.40;79.40
56498;DHT22;51790;45.558;12.076;2023-03-13T07:13:41;8.40;79.80
56498;DHT22;51790;45.558;12.076;2023-03-13T07:19:43;8.70;79.00
56498;DHT22;51790;45.558;12.076;2023-03-13T07:25:51;9.20;77.70
56498;DHT22;51790;45.558;12.076;2023-03-13T07:31:52;9.00;78.20
56498;DHT22;51790;45.558;12.076;2023-03-13T07:37:53;9.00;78.50
56498;DHT22;51790;45.558;12.076;2023-03-13T07:43:55;9.20;77.90
56498;DHT22;51790;45.558;12.076;2023-03-13T07:49:56;9.60;77.50
56498;DHT22;51790;45.558;12.076;2023-03-13T07:56:01;9.80;76.40
56498;DHT22;51790;45.558;12.076;2023-03-13T08:02:03;10.20;75.90
56498;DHT22;51790;45.558;12.076;2023-03-13T08:08:05;10.20;76.40
56498;DHT22;51790;45.558;12.076;2023-03-13T08:14:06;10.10;77.00
56498;DHT22;51790;45.558;12.076;2023-03-13T08:20:07;10.20;77.40
56498;DHT22;51790;45.558;12.076;2023-03-13T08:26:11;10.50;76.80
56498;DHT22;51790;45.558;12.076;2023-03-13T08:32:12;10.80;77.10
56498;DHT22;51790;45.558;12.076;2023-03-13T08:38:14;11.00;76.10
56498;DHT22;51790;45.558;12.076;2023-03-13T08:44:16;10.90;75.80
56498;DHT22;51790;45.558;12.076;2023-03-13T08:50:18;11.10;75.40
56498;DHT22;51790;45.558;12.076;2023-03-13T08:56:20;11.40;74.80
56498;DHT22;51790;45.558;12.076;2023-03-13T09:02:21;11.70;74.20
56498;DHT22;51790;45.558;12.076;2023-03-13T09:08:23;11.80;73.90
56498;DHT22;51790;45.558;12.076;2023-03-13T09:14:30;11.90;70.40
56498;DHT22;51790;45.558;12.076;2023-03-13T09:20:31;12.30;69.60
56498;DHT22;51790;45.558;12.076;2023-03-13T09:26:33;12.50;67.80
56498;DHT22;51790;45.558;12.076;2023-03-13T09:32:34;12.70;67.70
56498;DHT22;51790;45.558;12.076;2023-03-13T09:38:36;13.00;66.70
56498;DHT22;51790;45.558;12.076;2023-03-13T09:45:20;13.40;63.90
56498;DHT22;51790;45.558;12.076;2023-03-13T09:51:06;13.80;63.20
56498;DHT22;51790;45.558;12.076;2023-03-13T10:09:17;14.80;57.40
56498;DHT22;51790;45.558;12.076;2023-03-13T10:15:27;15.10;57.40
56498;DHT22;51790;45.558;12.076;2023-03-13T10:21:31;14.70;56.80
56498;DHT22;51790;45.558;12.076;2023-03-13T10:27:41;14.50;56.60
56498;DHT22;51790;45.558;12.076;2023-03-13T10:33:42;14.30;55.90
56498;DHT22;51790;45.558;12.076;2023-03-13T10:39:44;14.50;55.70
56498;DHT22;51790;45.558;12.076;2023-03-13T10:45:45;15.10;53.60
56498;DHT22;51790;45.558;12.076;2023-03-13T10:51:48;15.50;51.60
56498;DHT22;51790;45.558;12.076;2023-03-13T11:04:01;15.90;50.40
56498;DHT22;51790;45.558;12.076;2023-03-13T11:10:19;16.70;47.40
56498;DHT22;51790;45.558;12.076;2023-03-13T11:29:27;17.00;46.80
56498;DHT22;51790;45.558;12.076;2023-03-13T11:35:54;17.50;46.20
56498;DHT22;51790;45.558;12.076;2023-03-13T11:48:19;17.60;46.30
56498;DHT22;51790;45.558;12.076;2023-03-13T11:54:31;17.70;45.30
56498;DHT22;51790;45.558;12.076;2023-03-13T12:00:36;18.00;45.30
56498;DHT22;51790;45.558;12.076;2023-03-13T12:06:44;17.60;45.70
56498;DHT22;51790;45.558;12.076;2023-03-13T12:19:16;17.10;47.90
56498;DHT22;51790;45.558;12.076;2023-03-13T12:25:32;17.10;48.20
56498;DHT22;51790;45.558;12.076;2023-03-13T12:31:39;17.00;47.50
56498;DHT22;51790;45.558;12.076;2023-03-13T12:44:17;16.40;48.20
56498;DHT22;51790;45.558;12.076;2023-03-13T13:09:59;16.60;49.80
56498;DHT22;51790;45.558;12.076;2023-03-13T13:15:45;16.80;49.80
56498;DHT22;51790;45.558;12.076;2023-03-13T13:40:36;16.60;49.20
56498;DHT22;51790;45.558;12.076;2023-03-13T13:46:42;17.20;49.90
56498;DHT22;51790;45.558;12.076;2023-03-13T13:52:44;17.50;48.50
56498;DHT22;51790;45.558;12.076;2023-03-13T13:58:45;17.70;47.90
56498;DHT22;51790;45.558;12.076;2023-03-13T14:04:48;17.60;48.40
56498;DHT22;51790;45.558;12.076;2023-03-13T14:17:14;17.20;50.00
56498;DHT22;51790;45.558;12.076;2023-03-13T14:23:16;17.10;50.10
56498;DHT22;51790;45.558;12.076;2023-03-13T14:29:28;17.10;50.20
56498;DHT22;51790;45.558;12.076;2023-03-13T14:35:29;17.00;49.80
56498;DHT22;51790;45.558;12.076;2023-03-13T14:41:41;17.10;49.40
56498;DHT22;51790;45.558;12.076;2023-03-13T14:47:45;16.90;49.00
56498;DHT22;51790;45.558;12.076;2023-03-13T14:53:56;16.80;50.00
56498;DHT22;51790;45.558;12.076;2023-03-13T15:06:35;17.00;48.70
56498;DHT22;51790;45.558;12.076;2023-03-13T15:12:43;17.10;48.30
56498;DHT22;51790;45.558;12.076;2023-03-13T15:18:46;16.90;47.70
56498;DHT22;51790;45.558;12.076;2023-03-13T15:24:49;17.00;46.40
56498;DHT22;51790;45.558;12.076;2023-03-13T15:37:24;16.40;46.80
56498;DHT22;51790;45.558;12.076;2023-03-13T15:43:26;16.50;46.90
56498;DHT22;51790;45.558;12.076;2023-03-13T15:56:52;16.20;47.40
56498;DHT22;51790;45.558;12.076;2023-03-13T16:02:54;16.00;48.20
56498;DHT22;51790;45.558;12.076;2023-03-13T16:08:59;16.30;48.90
56498;DHT22;51790;45.558;12.076;2023-03-13T16:15:00;16.40;50.10
56498;DHT22;51790;45.558;12.076;2023-03-13T16:21:02;16.00;51.20
56498;DHT22;51790;45.558;12.076;2023-03-13T16:27:16;15.60;53.90
56498;DHT22;51790;45.558;12.076;2023-03-13T16:33:18;15.20;55.40
56498;DHT22;51790;45.558;12.076;2023-03-13T16:39:19;14.90;56.60
56498;DHT22;51790;45.558;12.076;2023-03-13T16:45:20;14.60;56.10
56498;DHT22;51790;45.558;12.076;2023-03-13T16:51:22;14.30;57.50
56498;DHT22;51790;45.558;12.076;2023-03-13T16:57:24;14.00;58.30
56498;DHT22;51790;45.558;12.076;2023-03-13T17:03:26;13.80;60.70
56498;DHT22;51790;45.558;12.076;2023-03-13T17:09:27;13.60;64.00
56498;DHT22;51790;45.558;12.076;2023-03-13T17:15:35;13.20;66.10
56498;DHT22;51790;45.558;12.076;2023-03-13T17:21:37;13.00;68.40
56498;DHT22;51790;45.558;12.076;2023-03-13T17:27:39;12.80;69.50
56498;DHT22;51790;45.558;12.076;2023-03-13T17:33:40;12.80;70.90
56498;DHT22;51790;45.558;12.076;2023-03-13T17:39:42;12.60;72.00
56498;DHT22;51790;45.558;12.076;2023-03-13T17:45:44;12.30;73.30
56498;DHT22;51790;45.558;12.076;2023-03-13T17:51:46;12.30;73.90
56498;DHT22;51790;45.558;12.076;2023-03-13T17:57:49;12.10;74.70
56498;DHT22;51790;45.558;12.076;2023-03-13T18:03:53;12.10;75.30
56498;DHT22;51790;45.558;12.076;2023-03-13T18:17:19;11.80;76.10
56498;DHT22;51790;45.558;12.076;2023-03-13T18:23:21;11.80;76.60
56498;DHT22;51790;45.558;12.076;2023-03-13T18:29:23;11.70;77.00
56498;DHT22;51790;45.558;12.076;2023-03-13T18:35:27;11.60;77.40
56498;DHT22;51790;45.558;12.076;2023-03-13T18:41:29;11.50;77.70
56498;DHT22;51790;45.558;12.076;2023-03-13T18:47:30;11.70;77.90
56498;DHT22;51790;45.558;12.076;2023-03-13T18:53:31;12.10;76.50
56498;DHT22;51790;45.558;12.076;2023-03-13T18:59:33;12.20;76.40
56498;DHT22;51790;45.558;12.076;2023-03-13T19:05:34;12.30;76.00
56498;DHT22;51790;45.558;12.076;2023-03-13T19:11:36;12.50;75.50
56498;DHT22;51790;45.558;12.076;2023-03-13T19:17:37;12.50;75.60
56498;DHT22;51790;45.558;12.076;2023-03-13T19:23:38;12.60;75.30
56498;DHT22;51790;45.558;12.076;2023-03-13T19:29:40;12.50;75.80
56498;DHT22;51790;45.558;12.076;2023-03-13T19:35:41;12.50;75.80
56498;DHT22;51790;45.558;12.076;2023-03-13T19:41:44;12.50;75.80
56498;DHT22;51790;45.558;12.076;2023-03-13T19:47:48;12.50;75.60
56498;DHT22;51790;45.558;12.076;2023-03-13T19:53:49;12.50;75.70
56498;DHT22;51790;45.558;12.076;2023-03-13T19:59:51;12.30;76.50
56498;DHT22;51790;45.558;12.076;2023-03-13T20:05:52;12.00;77.50
56498;DHT22;51790;45.558;12.076;2023-03-13T20:11:55;11.70;78.70
56498;DHT22;51790;45.558;12.076;2023-03-13T20:25:40;11.80;78.50
56498;DHT22;51790;45.558;12.076;2023-03-13T20:31:42;11.70;78.80
56498;DHT22;51790;45.558;12.076;2023-03-13T20:37:43;11.60;79.70
56498;DHT22;51790;45.558;12.076;2023-03-13T20:43:46;11.50;80.00
56498;DHT22;51790;45.558;12.076;2023-03-13T20:49:48;11.60;79.60
56498;DHT22;51790;45.558;12.076;2023-03-13T20:55:49;11.70;79.50
56498;DHT22;51790;45.558;12.076;2023-03-13T21:16:23;11.50;79.30
56498;DHT22;51790;45.558;12.076;2023-03-13T21:22:25;11.60;78.50
56498;DHT22;51790;45.558;12.076;2023-03-13T21:28:30;11.70;78.00
56498;DHT22;51790;45.558;12.076;2023-03-13T21:34:31;11.80;77.60
56498;DHT22;51790;45.558;12.076;2023-03-13T21:40:49;12.00;77.20
56498;DHT22;51790;45.558;12.076;2023-03-13T21:46:51;11.90;76.90
56498;DHT22;51790;45.558;12.076;2023-03-13T21:52:52;11.90;77.20
56498;DHT22;51790;45.558;12.076;2023-03-13T21:58:54;11.80;77.10
56498;DHT22;51790;45.558;12.076;2023-03-13T22:04:56;11.80;77.20
56498;DHT22;51790;45.558;12.076;2023-03-13T22:10:57;11.80;76.90
56498;DHT22;51790;45.558;12.076;2023-03-13T22:16:59;11.80;76.90
56498;DHT22;51790;45.558;12.076;2023-03-13T22:23:01;11.90;77.30
56498;DHT22;51790;45.558;12.076;2023-03-13T22:29:02;11.90;77.10
56498;DHT22;51790;45.558;12.076;2023-03-13T22:35:04;11.90;76.20
56498;DHT22;51790;45.558;12.076;2023-03-13T22:41:06;12.00;74.80
56498;DHT22;51790;45.558;12.076;2023-03-13T22:47:08;12.00;74.40
56498;DHT22;51790;45.558;12.076;2023-03-13T22:53:09;12.00;74.50
56498;DHT22;51790;45.558;12.076;2023-03-13T22:59:11;11.90;74.60
56498;DHT22;51790;45.558;12.076;2023-03-13T23:05:12;11.90;74.40
56498;DHT22;51790;45.558;12.076;2023-03-13T23:11:14;12.00;74.00
56498;DHT22;51790;45.558;12.076;2023-03-13T23:17:25;12.00;74.10
56498;DHT22;51790;45.558;12.076;2023-03-13T23:23:27;11.90;74.00
56498;DHT22;51790;45.558;12.076;2023-03-13T23:29:28;11.90;73.40
56498;DHT22;51790;45.558;12.076;2023-03-13T23:35:29;12.00;73.50
56498;DHT22;51790;45.558;12.076;2023-03-13T23:41:31;12.00;73.90
56498;DHT22;51790;45.558;12.076;2023-03-13T23:47:32;11.90;74.30
56498;DHT22;51790;45.558;12.076;2023-03-13T23:53:37;11.90;74.70
56498;DHT22;51790;45.558;12.076;2023-03-13T23:59:39;11.90;75.60
